Blade, Louisiana
Current Conditions -  °F | °C
As of 10:53 PM on Sunday 21 Dec 2014 (Local Time) from KESF Reporting Station
Overcast Overcast  
Wind Chill: 48°   Ceiling: 200
Heat Index: 48°   Visibility: 10mi
Dew Point: 48°   Wind: 3mph
Humidity: 100%   Direction: 200°SSW
Pressure: 29.93"   Gusts: NA
Location:  31.6831°N, 92.083°W
Report Text: KESF 220453Z AUTO 20003KT 10SM OVC002 09/09 A2993 RMK AO2 SLP136 T00890089
Loading
Personal Weather Stations






























Interactive Weather Map New forecast layout! Learn more

10-Day Weather Forecast

Advertisements
Track Severe Weather on mobile